sensor_id;sensor_type;location;lat;lon;timestamp;temperature;humidity
46231;DHT22;31949;51.404;-0.038;2023-12-29T00:01:17;10.50;99.90
46231;DHT22;31949;51.404;-0.038;2023-12-29T00:03:45;10.50;99.90
46231;DHT22;31949;51.404;-0.038;2023-12-29T00:06:13;10.50;99.90
46231;DHT22;31949;51.404;-0.038;2023-12-29T00:08:40;10.50;99.90
46231;DHT22;31949;51.404;-0.038;2023-12-29T00:11:07;10.60;99.90
46231;DHT22;31949;51.404;-0.038;2023-12-29T00:13:34;10.50;99.90
46231;DHT22;31949;51.404;-0.038;2023-12-29T00:16:02;10.50;99.90
46231;DHT22;31949;51.404;-0.038;2023-12-29T00:18:29;10.40;99.90
46231;DHT22;31949;51.404;-0.038;2023-12-29T00:20:57;10.50;99.90
46231;DHT22;31949;51.404;-0.038;2023-12-29T00:23:33;10.50;99.90
46231;DHT22;31949;51.404;-0.038;2023-12-29T00:26:00;10.50;99.90
46231;DHT22;31949;51.404;-0.038;2023-12-29T00:28:28;10.50;99.90
46231;DHT22;31949;51.404;-0.038;2023-12-29T00:30:55;10.50;99.90
46231;DHT22;31949;51.404;-0.038;2023-12-29T00:33:29;10.50;99.90
46231;DHT22;31949;51.404;-0.038;2023-12-29T00:35:59;10.50;99.90
46231;DHT22;31949;51.404;-0.038;2023-12-29T00:38:27;10.50;99.90
46231;DHT22;31949;51.404;-0.038;2023-12-29T00:40:55;10.40;99.90
46231;DHT22;31949;51.404;-0.038;2023-12-29T00:43:22;10.40;99.90
46231;DHT22;31949;51.404;-0.038;2023-12-29T00:45:50;10.40;99.90
46231;DHT22;31949;51.404;-0.038;2023-12-29T00:48:17;10.40;99.90
46231;DHT22;31949;51.404;-0.038;2023-12-29T00:50:45;10.40;99.90
46231;DHT22;31949;51.404;-0.038;2023-12-29T00:53:12;10.30;99.90
46231;DHT22;31949;51.404;-0.038;2023-12-29T00:55:40;10.30;99.90
46231;DHT22;31949;51.404;-0.038;2023-12-29T00:58:07;10.30;99.90
46231;DHT22;31949;51.404;-0.038;2023-12-29T01:00:34;10.30;99.90
46231;DHT22;31949;51.404;-0.038;2023-12-29T01:03:02;10.30;99.90
46231;DHT22;31949;51.404;-0.038;2023-12-29T01:05:29;10.40;99.90
46231;DHT22;31949;51.404;-0.038;2023-12-29T01:07:56;10.40;99.90
46231;DHT22;31949;51.404;-0.038;2023-12-29T01:10:24;10.30;99.90
46231;DHT22;31949;51.404;-0.038;2023-12-29T01:12:51;10.30;99.90
46231;DHT22;31949;51.404;-0.038;2023-12-29T01:15:18;10.30;99.90
46231;DHT22;31949;51.404;-0.038;2023-12-29T01:17:46;10.30;99.90
46231;DHT22;31949;51.404;-0.038;2023-12-29T01:20:13;10.30;99.90
46231;DHT22;31949;51.404;-0.038;2023-12-29T01:22:42;10.30;99.90
46231;DHT22;31949;51.404;-0.038;2023-12-29T01:25:09;10.30;99.90
46231;DHT22;31949;51.404;-0.038;2023-12-29T01:27:36;10.30;99.90
46231;DHT22;31949;51.404;-0.038;2023-12-29T01:30:04;10.40;99.90
46231;DHT22;31949;51.404;-0.038;2023-12-29T01:32:31;10.40;99.90
46231;DHT22;31949;51.404;-0.038;2023-12-29T01:35:01;10.30;99.90
46231;DHT22;31949;51.404;-0.038;2023-12-29T01:37:29;10.30;99.90
46231;DHT22;31949;51.404;-0.038;2023-12-29T01:39:57;10.30;99.90
46231;DHT22;31949;51.404;-0.038;2023-12-29T01:42:24;10.40;99.90
46231;DHT22;31949;51.404;-0.038;2023-12-29T01:44:53;10.40;99.90
46231;DHT22;31949;51.404;-0.038;2023-12-29T01:47:22;10.40;99.90
46231;DHT22;31949;51.404;-0.038;2023-12-29T01:49:50;10.40;99.90
46231;DHT22;31949;51.404;-0.038;2023-12-29T01:52:21;10.40;99.90
46231;DHT22;31949;51.404;-0.038;2023-12-29T01:54:49;10.40;99.90
46231;DHT22;31949;51.404;-0.038;2023-12-29T01:57:17;10.40;99.90
46231;DHT22;31949;51.404;-0.038;2023-12-29T01:59:45;10.50;99.90
46231;DHT22;31949;51.404;-0.038;2023-12-29T02:02:15;10.40;99.90
46231;DHT22;31949;51.404;-0.038;2023-12-29T02:04:43;10.50;99.90
46231;DHT22;31949;51.404;-0.038;2023-12-29T02:07:11;10.50;99.90
46231;DHT22;31949;51.404;-0.038;2023-12-29T02:09:39;10.40;99.90
46231;DHT22;31949;51.404;-0.038;2023-12-29T02:12:06;10.50;99.90
46231;DHT22;31949;51.404;-0.038;2023-12-29T02:14:34;10.40;99.90
46231;DHT22;31949;51.404;-0.038;2023-12-29T02:17:09;10.50;99.90
46231;DHT22;31949;51.404;-0.038;2023-12-29T02:19:42;10.40;99.90
46231;DHT22;31949;51.404;-0.038;2023-12-29T02:22:12;10.50;99.90
46231;DHT22;31949;51.404;-0.038;2023-12-29T02:24:45;10.50;99.90
46231;DHT22;31949;51.404;-0.038;2023-12-29T02:32:55;10.50;99.90
46231;DHT22;31949;51.404;-0.038;2023-12-29T02:35:34;10.50;99.90
46231;DHT22;31949;51.404;-0.038;2023-12-29T02:38:03;10.40;99.90
46231;DHT22;31949;51.404;-0.038;2023-12-29T02:40:31;10.40;99.90
46231;DHT22;31949;51.404;-0.038;2023-12-29T02:42:58;10.40;99.90
46231;DHT22;31949;51.404;-0.038;2023-12-29T02:45:26;10.50;99.90
46231;DHT22;31949;51.404;-0.038;2023-12-29T02:47:53;10.40;99.90
46231;DHT22;31949;51.404;-0.038;2023-12-29T02:50:21;10.50;99.90
46231;DHT22;31949;51.404;-0.038;2023-12-29T02:52:48;10.40;99.90
46231;DHT22;31949;51.404;-0.038;2023-12-29T02:55:15;10.40;99.90
46231;DHT22;31949;51.404;-0.038;2023-12-29T02:57:43;10.40;99.90
46231;DHT22;31949;51.404;-0.038;2023-12-29T03:00:10;10.40;99.90
46231;DHT22;31949;51.404;-0.038;2023-12-29T03:02:38;10.40;99.90
46231;DHT22;31949;51.404;-0.038;2023-12-29T03:05:05;10.40;99.90
46231;DHT22;31949;51.404;-0.038;2023-12-29T03:07:33;10.40;99.90
46231;DHT22;31949;51.404;-0.038;2023-12-29T03:10:00;10.40;99.90
46231;DHT22;31949;51.404;-0.038;2023-12-29T03:12:27;10.40;99.90
46231;DHT22;31949;51.404;-0.038;2023-12-29T03:14:56;10.40;99.90
46231;DHT22;31949;51.404;-0.038;2023-12-29T03:17:23;10.40;99.90
46231;DHT22;31949;51.404;-0.038;2023-12-29T03:19:51;10.40;99.90
46231;DHT22;31949;51.404;-0.038;2023-12-29T03:22:18;10.40;99.90
46231;DHT22;31949;51.404;-0.038;2023-12-29T03:24:46;10.40;99.90
46231;DHT22;31949;51.404;-0.038;2023-12-29T03:27:13;10.40;99.90
46231;DHT22;31949;51.404;-0.038;2023-12-29T03:29:40;10.40;99.90
46231;DHT22;31949;51.404;-0.038;2023-12-29T03:32:07;10.40;99.90
46231;DHT22;31949;51.404;-0.038;2023-12-29T03:34:34;10.40;99.90
46231;DHT22;31949;51.404;-0.038;2023-12-29T03:37:02;10.50;99.90
46231;DHT22;31949;51.404;-0.038;2023-12-29T03:39:29;10.50;99.90
46231;DHT22;31949;51.404;-0.038;2023-12-29T03:41:57;10.50;99.90
46231;DHT22;31949;51.404;-0.038;2023-12-29T03:44:24;10.50;99.90
46231;DHT22;31949;51.404;-0.038;2023-12-29T03:46:51;10.60;99.90
46231;DHT22;31949;51.404;-0.038;2023-12-29T03:49:18;10.50;99.90
46231;DHT22;31949;51.404;-0.038;2023-12-29T03:51:46;10.50;99.90
46231;DHT22;31949;51.404;-0.038;2023-12-29T03:54:15;10.60;99.90
46231;DHT22;31949;51.404;-0.038;2023-12-29T03:56:42;10.60;99.90
46231;DHT22;31949;51.404;-0.038;2023-12-29T03:59:09;10.60;99.90
46231;DHT22;31949;51.404;-0.038;2023-12-29T04:01:36;10.60;99.90
46231;DHT22;31949;51.404;-0.038;2023-12-29T04:04:04;10.60;99.90
46231;DHT22;31949;51.404;-0.038;2023-12-29T04:06:31;10.70;99.90
46231;DHT22;31949;51.404;-0.038;2023-12-29T04:08:58;10.80;99.90
46231;DHT22;31949;51.404;-0.038;2023-12-29T04:11:26;10.80;99.90
46231;DHT22;31949;51.404;-0.038;2023-12-29T04:13:54;10.70;99.90
46231;DHT22;31949;51.404;-0.038;2023-12-29T04:16:21;10.80;99.90
46231;DHT22;31949;51.404;-0.038;2023-12-29T04:18:49;10.90;99.90
46231;DHT22;31949;51.404;-0.038;2023-12-29T04:21:16;10.80;99.90
46231;DHT22;31949;51.404;-0.038;2023-12-29T04:23:43;10.80;99.90
46231;DHT22;31949;51.404;-0.038;2023-12-29T04:26:10;10.80;99.90
46231;DHT22;31949;51.404;-0.038;2023-12-29T04:28:38;10.90;99.90
46231;DHT22;31949;51.404;-0.038;2023-12-29T04:31:05;10.90;99.90
46231;DHT22;31949;51.404;-0.038;2023-12-29T04:33:33;10.90;99.90
46231;DHT22;31949;51.404;-0.038;2023-12-29T04:36:00;10.90;99.90
46231;DHT22;31949;51.404;-0.038;2023-12-29T04:38:27;10.90;99.90
46231;DHT22;31949;51.404;-0.038;2023-12-29T04:40:55;11.00;99.90
46231;DHT22;31949;51.404;-0.038;2023-12-29T04:43:22;11.00;99.90
46231;DHT22;31949;51.404;-0.038;2023-12-29T04:45:49;11.10;99.90
46231;DHT22;31949;51.404;-0.038;2023-12-29T04:48:16;11.10;99.90
46231;DHT22;31949;51.404;-0.038;2023-12-29T04:50:43;11.10;99.90
46231;DHT22;31949;51.404;-0.038;2023-12-29T04:53:11;11.10;99.90
46231;DHT22;31949;51.404;-0.038;2023-12-29T04:55:38;11.10;99.90
46231;DHT22;31949;51.404;-0.038;2023-12-29T04:58:05;11.00;99.90
46231;DHT22;31949;51.404;-0.038;2023-12-29T05:00:33;11.10;99.90
46231;DHT22;31949;51.404;-0.038;2023-12-29T05:03:01;11.10;99.90
46231;DHT22;31949;51.404;-0.038;2023-12-29T05:05:28;11.10;99.90
46231;DHT22;31949;51.404;-0.038;2023-12-29T05:07:55;11.10;99.90
46231;DHT22;31949;51.404;-0.038;2023-12-29T05:10:22;11.10;99.90
46231;DHT22;31949;51.404;-0.038;2023-12-29T05:12:49;11.10;99.90
46231;DHT22;31949;51.404;-0.038;2023-12-29T05:15:17;11.10;99.90
46231;DHT22;31949;51.404;-0.038;2023-12-29T05:17:44;11.10;99.90
46231;DHT22;31949;51.404;-0.038;2023-12-29T05:20:11;11.10;99.90
46231;DHT22;31949;51.404;-0.038;2023-12-29T05:22:38;11.10;99.90
46231;DHT22;31949;51.404;-0.038;2023-12-29T05:25:06;11.00;99.90
46231;DHT22;31949;51.404;-0.038;2023-12-29T05:27:33;11.10;99.90
46231;DHT22;31949;51.404;-0.038;2023-12-29T05:30:02;11.10;99.90
46231;DHT22;31949;51.404;-0.038;2023-12-29T05:32:30;11.10;99.90
46231;DHT22;31949;51.404;-0.038;2023-12-29T05:34:57;11.10;99.90
46231;DHT22;31949;51.404;-0.038;2023-12-29T05:37:24;11.10;99.90
46231;DHT22;31949;51.404;-0.038;2023-12-29T05:39:51;11.10;99.90
46231;DHT22;31949;51.404;-0.038;2023-12-29T05:42:19;11.10;99.90
46231;DHT22;31949;51.404;-0.038;2023-12-29T05:44:46;11.10;99.90
46231;DHT22;31949;51.404;-0.038;2023-12-29T05:47:13;11.10;99.90
46231;DHT22;31949;51.404;-0.038;2023-12-29T05:49:40;11.10;99.90
46231;DHT22;31949;51.404;-0.038;2023-12-29T05:52:08;11.10;99.90
46231;DHT22;31949;51.404;-0.038;2023-12-29T05:54:35;11.20;99.90
46231;DHT22;31949;51.404;-0.038;2023-12-29T05:57:02;11.20;99.90
46231;DHT22;31949;51.404;-0.038;2023-12-29T05:59:30;11.20;99.90
46231;DHT22;31949;51.404;-0.038;2023-12-29T06:01:57;11.10;99.90
46231;DHT22;31949;51.404;-0.038;2023-12-29T06:04:24;11.10;99.90
46231;DHT22;31949;51.404;-0.038;2023-12-29T06:06:51;11.20;99.90
46231;DHT22;31949;51.404;-0.038;2023-12-29T06:09:19;11.10;99.90
46231;DHT22;31949;51.404;-0.038;2023-12-29T06:11:46;11.10;99.90
46231;DHT22;31949;51.404;-0.038;2023-12-29T06:14:13;11.00;99.90
46231;DHT22;31949;51.404;-0.038;2023-12-29T06:16:41;10.90;99.90
46231;DHT22;31949;51.404;-0.038;2023-12-29T06:19:09;10.80;99.90
46231;DHT22;31949;51.404;-0.038;2023-12-29T06:21:42;10.80;99.90
46231;DHT22;31949;51.404;-0.038;2023-12-29T06:24:10;10.80;99.90
46231;DHT22;31949;51.404;-0.038;2023-12-29T06:26:38;10.80;99.90
46231;DHT22;31949;51.404;-0.038;2023-12-29T06:29:10;10.70;99.90
46231;DHT22;31949;51.404;-0.038;2023-12-29T06:31:41;10.70;99.90
46231;DHT22;31949;51.404;-0.038;2023-12-29T06:34:10;10.70;99.90
46231;DHT22;31949;51.404;-0.038;2023-12-29T06:36:37;10.70;99.90
46231;DHT22;31949;51.404;-0.038;2023-12-29T06:39:04;10.60;99.90
46231;DHT22;31949;51.404;-0.038;2023-12-29T06:41:32;10.60;99.90
46231;DHT22;31949;51.404;-0.038;2023-12-29T06:43:59;10.60;99.90
46231;DHT22;31949;51.404;-0.038;2023-12-29T06:46:27;10.60;99.90
46231;DHT22;31949;51.404;-0.038;2023-12-29T06:48:54;10.60;99.90
46231;DHT22;31949;51.404;-0.038;2023-12-29T06:51:22;10.50;99.90
46231;DHT22;31949;51.404;-0.038;2023-12-29T06:53:50;10.60;99.90
46231;DHT22;31949;51.404;-0.038;2023-12-29T06:56:18;10.50;99.90
46231;DHT22;31949;51.404;-0.038;2023-12-29T06:58:46;10.50;99.90
46231;DHT22;31949;51.404;-0.038;2023-12-29T07:01:13;10.50;99.90
46231;DHT22;31949;51.404;-0.038;2023-12-29T07:03:41;10.50;99.90
46231;DHT22;31949;51.404;-0.038;2023-12-29T07:06:09;10.60;99.90
46231;DHT22;31949;51.404;-0.038;2023-12-29T07:08:37;10.60;99.90
46231;DHT22;31949;51.404;-0.038;2023-12-29T07:11:06;10.60;99.90
46231;DHT22;31949;51.404;-0.038;2023-12-29T07:13:36;10.60;99.90
46231;DHT22;31949;51.404;-0.038;2023-12-29T07:16:04;10.60;99.90
46231;DHT22;31949;51.404;-0.038;2023-12-29T07:18:32;10.60;99.90
46231;DHT22;31949;51.404;-0.038;2023-12-29T07:20:59;10.60;99.90
46231;DHT22;31949;51.404;-0.038;2023-12-29T07:23:27;10.60;99.90
46231;DHT22;31949;51.404;-0.038;2023-12-29T07:25:54;10.60;99.90
46231;DHT22;31949;51.404;-0.038;2023-12-29T07:28:21;10.70;99.90
46231;DHT22;31949;51.404;-0.038;2023-12-29T07:30:48;10.70;99.90
46231;DHT22;31949;51.404;-0.038;2023-12-29T07:33:16;10.70;99.90
46231;DHT22;31949;51.404;-0.038;2023-12-29T07:35:43;10.70;99.90
46231;DHT22;31949;51.404;-0.038;2023-12-29T07:38:11;10.70;99.90
46231;DHT22;31949;51.404;-0.038;2023-12-29T07:40:38;10.70;99.90
46231;DHT22;31949;51.404;-0.038;2023-12-29T07:43:05;10.70;99.90
46231;DHT22;31949;51.404;-0.038;2023-12-29T07:45:33;10.70;99.90
46231;DHT22;31949;51.404;-0.038;2023-12-29T07:48:04;10.70;99.90
46231;DHT22;31949;51.404;-0.038;2023-12-29T07:50:36;10.70;99.90
46231;DHT22;31949;51.404;-0.038;2023-12-29T07:53:04;10.70;99.90
46231;DHT22;31949;51.404;-0.038;2023-12-29T07:55:33;10.70;99.90
46231;DHT22;31949;51.404;-0.038;2023-12-29T07:58:04;10.70;99.90
46231;DHT22;31949;51.404;-0.038;2023-12-29T08:00:33;10.60;99.90
46231;DHT22;31949;51.404;-0.038;2023-12-29T08:03:00;10.60;99.90
46231;DHT22;31949;51.404;-0.038;2023-12-29T08:05:27;10.60;99.90
46231;DHT22;31949;51.404;-0.038;2023-12-29T08:07:55;10.50;99.90
46231;DHT22;31949;51.404;-0.038;2023-12-29T08:10:22;10.50;99.90
46231;DHT22;31949;51.404;-0.038;2023-12-29T08:12:49;10.40;99.90
46231;DHT22;31949;51.404;-0.038;2023-12-29T08:15:16;10.40;99.90
46231;DHT22;31949;51.404;-0.038;2023-12-29T08:17:44;10.40;99.90
46231;DHT22;31949;51.404;-0.038;2023-12-29T08:20:11;10.30;99.90
46231;DHT22;31949;51.404;-0.038;2023-12-29T08:22:38;10.30;99.90
46231;DHT22;31949;51.404;-0.038;2023-12-29T08:25:06;10.30;99.90
46231;DHT22;31949;51.404;-0.038;2023-12-29T08:27:33;10.30;99.90
46231;DHT22;31949;51.404;-0.038;2023-12-29T08:30:01;10.30;99.90
46231;DHT22;31949;51.404;-0.038;2023-12-29T08:32:30;10.20;99.90
46231;DHT22;31949;51.404;-0.038;2023-12-29T08:34:57;10.30;99.90
46231;DHT22;31949;51.404;-0.038;2023-12-29T08:37:24;10.20;99.90
46231;DHT22;31949;51.404;-0.038;2023-12-29T08:39:52;10.20;99.90
46231;DHT22;31949;51.404;-0.038;2023-12-29T08:42:19;10.30;99.90
46231;DHT22;31949;51.404;-0.038;2023-12-29T08:44:49;10.20;99.90
46231;DHT22;31949;51.404;-0.038;2023-12-29T08:47:16;10.30;99.90
46231;DHT22;31949;51.404;-0.038;2023-12-29T08:49:44;10.30;99.90
46231;DHT22;31949;51.404;-0.038;2023-12-29T08:52:11;10.20;99.90
46231;DHT22;31949;51.404;-0.038;2023-12-29T08:54:38;10.10;99.90
46231;DHT22;31949;51.404;-0.038;2023-12-29T08:57:05;10.20;99.90
46231;DHT22;31949;51.404;-0.038;2023-12-29T08:59:34;10.20;99.90
46231;DHT22;31949;51.404;-0.038;2023-12-29T09:02:01;10.20;99.90
46231;DHT22;31949;51.404;-0.038;2023-12-29T09:04:28;10.20;99.90
46231;DHT22;31949;51.404;-0.038;2023-12-29T09:06:55;10.20;99.90
46231;DHT22;31949;51.404;-0.038;2023-12-29T09:09:23;10.20;99.90
46231;DHT22;31949;51.404;-0.038;2023-12-29T09:11:50;10.20;99.90
46231;DHT22;31949;51.404;-0.038;2023-12-29T09:14:17;10.20;99.90
46231;DHT22;31949;51.404;-0.038;2023-12-29T09:16:44;10.30;99.90
46231;DHT22;31949;51.404;-0.038;2023-12-29T09:19:13;10.30;99.90
46231;DHT22;31949;51.404;-0.038;2023-12-29T09:21:57;10.30;99.90
46231;DHT22;31949;51.404;-0.038;2023-12-29T09:24:24;10.30;99.90
46231;DHT22;31949;51.404;-0.038;2023-12-29T09:26:51;10.40;99.90
46231;DHT22;31949;51.404;-0.038;2023-12-29T09:29:19;10.40;99.90
46231;DHT22;31949;51.404;-0.038;2023-12-29T09:31:46;10.40;99.90
46231;DHT22;31949;51.404;-0.038;2023-12-29T09:34:14;10.40;99.90
46231;DHT22;31949;51.404;-0.038;2023-12-29T09:36:41;10.50;99.90
46231;DHT22;31949;51.404;-0.038;2023-12-29T09:39:09;10.50;99.90
46231;DHT22;31949;51.404;-0.038;2023-12-29T09:41:42;10.50;99.90
46231;DHT22;31949;51.404;-0.038;2023-12-29T09:44:13;10.60;99.90
46231;DHT22;31949;51.404;-0.038;2023-12-29T09:46:42;10.60;99.90
46231;DHT22;31949;51.404;-0.038;2023-12-29T09:49:10;10.60;99.90
46231;DHT22;31949;51.404;-0.038;2023-12-29T09:51:40;10.60;99.90
46231;DHT22;31949;51.404;-0.038;2023-12-29T09:54:08;10.60;99.90
46231;DHT22;31949;51.404;-0.038;2023-12-29T09:56:41;10.60;99.90
46231;DHT22;31949;51.404;-0.038;2023-12-29T09:59:10;10.70;99.90
46231;DHT22;31949;51.404;-0.038;2023-12-29T10:01:39;10.70;99.90
46231;DHT22;31949;51.404;-0.038;2023-12-29T10:04:08;10.80;99.90
46231;DHT22;31949;51.404;-0.038;2023-12-29T10:06:37;10.80;99.90
46231;DHT22;31949;51.404;-0.038;2023-12-29T10:09:07;10.90;99.90
46231;DHT22;31949;51.404;-0.038;2023-12-29T10:11:38;10.90;99.90
46231;DHT22;31949;51.404;-0.038;2023-12-29T10:14:24;11.00;99.90
46231;DHT22;31949;51.404;-0.038;2023-12-29T10:17:08;11.00;99.90
46231;DHT22;31949;51.404;-0.038;2023-12-29T10:19:40;11.10;99.90
46231;DHT22;31949;51.404;-0.038;2023-12-29T10:22:26;11.20;99.90
46231;DHT22;31949;51.404;-0.038;2023-12-29T10:24:56;11.20;99.90
46231;DHT22;31949;51.404;-0.038;2023-12-29T10:27:23;11.20;99.90
46231;DHT22;31949;51.404;-0.038;2023-12-29T10:29:52;11.20;99.90
46231;DHT22;31949;51.404;-0.038;2023-12-29T10:32:19;11.20;99.90
46231;DHT22;31949;51.404;-0.038;2023-12-29T10:34:46;11.20;99.90
46231;DHT22;31949;51.404;-0.038;2023-12-29T10:37:22;11.20;99.90
46231;DHT22;31949;51.404;-0.038;2023-12-29T10:39:56;11.20;99.90
46231;DHT22;31949;51.404;-0.038;2023-12-29T10:42:24;11.20;99.90
46231;DHT22;31949;51.404;-0.038;2023-12-29T10:45:08;11.30;99.90
46231;DHT22;31949;51.404;-0.038;2023-12-29T10:47:37;11.30;99.90
46231;DHT22;31949;51.404;-0.038;2023-12-29T10:50:05;11.20;99.90
46231;DHT22;31949;51.404;-0.038;2023-12-29T10:52:33;11.20;99.90
46231;DHT22;31949;51.404;-0.038;2023-12-29T10:55:05;11.20;99.90
46231;DHT22;31949;51.404;-0.038;2023-12-29T10:57:32;11.20;99.90
46231;DHT22;31949;51.404;-0.038;2023-12-29T11:00:00;11.10;99.90
46231;DHT22;31949;51.404;-0.038;2023-12-29T11:02:28;11.20;99.90
46231;DHT22;31949;51.404;-0.038;2023-12-29T11:05:06;11.20;99.90
46231;DHT22;31949;51.404;-0.038;2023-12-29T11:07:34;11.30;99.90
46231;DHT22;31949;51.404;-0.038;2023-12-29T11:10:07;11.30;99.90
46231;DHT22;31949;51.404;-0.038;2023-12-29T11:12:36;11.30;99.90
46231;DHT22;31949;51.404;-0.038;2023-12-29T11:15:05;11.40;99.90
46231;DHT22;31949;51.404;-0.038;2023-12-29T11:17:34;11.30;99.90
46231;DHT22;31949;51.404;-0.038;2023-12-29T11:20:03;11.30;99.90
46231;DHT22;31949;51.404;-0.038;2023-12-29T11:22:32;11.30;99.90
46231;DHT22;31949;51.404;-0.038;2023-12-29T11:24:59;11.30;99.90
46231;DHT22;31949;51.404;-0.038;2023-12-29T11:27:30;11.40;99.90
46231;DHT22;31949;51.404;-0.038;2023-12-29T11:30:02;11.60;99.90
46231;DHT22;31949;51.404;-0.038;2023-12-29T11:32:50;11.60;99.90
46231;DHT22;31949;51.404;-0.038;2023-12-29T11:35:24;11.70;99.90
46231;DHT22;31949;51.404;-0.038;2023-12-29T11:40:42;11.80;99.90
46231;DHT22;31949;51.404;-0.038;2023-12-29T11:43:17;11.90;99.90
46231;DHT22;31949;51.404;-0.038;2023-12-29T11:45:45;11.90;99.90
46231;DHT22;31949;51.404;-0.038;2023-12-29T11:48:12;11.80;99.90
46231;DHT22;31949;51.404;-0.038;2023-12-29T11:50:41;11.80;99.90
46231;DHT22;31949;51.404;-0.038;2023-12-29T11:53:08;12.00;99.90
46231;DHT22;31949;51.404;-0.038;2023-12-29T11:55:38;11.90;99.90
46231;DHT22;31949;51.404;-0.038;2023-12-29T11:58:26;12.00;99.90
46231;DHT22;31949;51.404;-0.038;2023-12-29T12:00:56;12.00;99.90
46231;DHT22;31949;51.404;-0.038;2023-12-29T12:03:31;11.90;99.90
46231;DHT22;31949;51.404;-0.038;2023-12-29T12:06:01;11.90;99.90
46231;DHT22;31949;51.404;-0.038;2023-12-29T12:08:33;12.00;99.90
46231;DHT22;31949;51.404;-0.038;2023-12-29T12:13:58;12.00;99.90
46231;DHT22;31949;51.404;-0.038;2023-12-29T12:19:15;12.00;99.90
46231;DHT22;31949;51.404;-0.038;2023-12-29T12:21:47;12.00;99.90
46231;DHT22;31949;51.404;-0.038;2023-12-29T12:24:18;12.10;99.90
46231;DHT22;31949;51.404;-0.038;2023-12-29T12:26:46;12.10;99.90
46231;DHT22;31949;51.404;-0.038;2023-12-29T12:29:14;12.10;99.90
46231;DHT22;31949;51.404;-0.038;2023-12-29T12:32:02;12.20;99.90
46231;DHT22;31949;51.404;-0.038;2023-12-29T12:34:37;12.30;99.90
46231;DHT22;31949;51.404;-0.038;2023-12-29T12:37:05;12.20;99.90
46231;DHT22;31949;51.404;-0.038;2023-12-29T12:39:40;12.30;99.90
46231;DHT22;31949;51.404;-0.038;2023-12-29T12:42:08;12.30;99.90
46231;DHT22;31949;51.404;-0.038;2023-12-29T12:44:41;12.30;99.90
46231;DHT22;31949;51.404;-0.038;2023-12-29T12:47:15;12.20;99.90
46231;DHT22;31949;51.404;-0.038;2023-12-29T12:49:46;12.20;99.90
46231;DHT22;31949;51.404;-0.038;2023-12-29T12:52:13;12.20;99.90
46231;DHT22;31949;51.404;-0.038;2023-12-29T12:54:41;12.20;99.90
46231;DHT22;31949;51.404;-0.038;2023-12-29T12:57:08;12.30;99.90
46231;DHT22;31949;51.404;-0.038;2023-12-29T12:59:36;12.30;99.90
46231;DHT22;31949;51.404;-0.038;2023-12-29T13:02:03;12.30;99.90
46231;DHT22;31949;51.404;-0.038;2023-12-29T13:04:33;12.20;99.90
46231;DHT22;31949;51.404;-0.038;2023-12-29T13:07:00;12.30;99.90
46231;DHT22;31949;51.404;-0.038;2023-12-29T13:09:29;12.20;99.90
46231;DHT22;31949;51.404;-0.038;2023-12-29T13:12:12;12.20;99.90
46231;DHT22;31949;51.404;-0.038;2023-12-29T13:14:40;12.20;99.90
46231;DHT22;31949;51.404;-0.038;2023-12-29T13:17:12;12.10;99.90
46231;DHT22;31949;51.404;-0.038;2023-12-29T13:19:40;12.00;99.90
46231;DHT22;31949;51.404;-0.038;2023-12-29T13:22:12;12.00;99.90
46231;DHT22;31949;51.404;-0.038;2023-12-29T13:24:45;11.90;99.90
46231;DHT22;31949;51.404;-0.038;2023-12-29T13:27:13;12.00;99.90
46231;DHT22;31949;51.404;-0.038;2023-12-29T13:29:41;12.00;99.90
46231;DHT22;31949;51.404;-0.038;2023-12-29T13:32:18;11.90;99.90
46231;DHT22;31949;51.404;-0.038;2023-12-29T13:35:06;11.90;99.90
46231;DHT22;31949;51.404;-0.038;2023-12-29T13:40:14;12.00;99.90
46231;DHT22;31949;51.404;-0.038;2023-12-29T13:42:46;12.00;99.90
46231;DHT22;31949;51.404;-0.038;2023-12-29T13:45:15;11.90;99.90
46231;DHT22;31949;51.404;-0.038;2023-12-29T13:47:43;11.90;99.90
46231;DHT22;31949;51.404;-0.038;2023-12-29T13:50:11;11.90;99.90
46231;DHT22;31949;51.404;-0.038;2023-12-29T13:52:38;11.90;99.90
46231;DHT22;31949;51.404;-0.038;2023-12-29T13:55:06;11.90;99.90
46231;DHT22;31949;51.404;-0.038;2023-12-29T13:57:34;11.90;99.90
46231;DHT22;31949;51.404;-0.038;2023-12-29T14:00:22;11.90;99.90
46231;DHT22;31949;51.404;-0.038;2023-12-29T14:05:43;11.80;99.90
46231;DHT22;31949;51.404;-0.038;2023-12-29T14:08:18;11.80;99.90
46231;DHT22;31949;51.404;-0.038;2023-12-29T14:10:48;11.90;99.90
46231;DHT22;31949;51.404;-0.038;2023-12-29T14:13:16;11.90;99.90
46231;DHT22;31949;51.404;-0.038;2023-12-29T14:15:45;11.90;99.90
46231;DHT22;31949;51.404;-0.038;2023-12-29T14:20:55;11.90;99.90
46231;DHT22;31949;51.404;-0.038;2023-12-29T14:23:25;11.80;99.90
46231;DHT22;31949;51.404;-0.038;2023-12-29T14:25:52;11.80;99.90
46231;DHT22;31949;51.404;-0.038;2023-12-29T14:28:20;11.80;99.90
46231;DHT22;31949;51.404;-0.038;2023-12-29T14:30:49;11.80;99.90
46231;DHT22;31949;51.404;-0.038;2023-12-29T14:33:18;11.80;99.90
46231;DHT22;31949;51.404;-0.038;2023-12-29T14:35:45;11.80;99.90
46231;DHT22;31949;51.404;-0.038;2023-12-29T14:38:12;11.80;99.90
46231;DHT22;31949;51.404;-0.038;2023-12-29T14:40:45;11.80;99.90
46231;DHT22;31949;51.404;-0.038;2023-12-29T14:43:15;11.70;99.90
46231;DHT22;31949;51.404;-0.038;2023-12-29T14:45:47;11.70;99.90
46231;DHT22;31949;51.404;-0.038;2023-12-29T14:48:16;11.70;99.90
46231;DHT22;31949;51.404;-0.038;2023-12-29T14:50:46;11.70;99.90
46231;DHT22;31949;51.404;-0.038;2023-12-29T14:53:14;11.70;99.90
46231;DHT22;31949;51.404;-0.038;2023-12-29T14:55:41;11.60;99.90
46231;DHT22;31949;51.404;-0.038;2023-12-29T14:58:08;11.60;99.90
46231;DHT22;31949;51.404;-0.038;2023-12-29T15:00:36;11.70;99.90
46231;DHT22;31949;51.404;-0.038;2023-12-29T15:03:03;11.70;99.90
46231;DHT22;31949;51.404;-0.038;2023-12-29T15:05:31;11.60;99.90
46231;DHT22;31949;51.404;-0.038;2023-12-29T15:07:58;11.60;99.90
46231;DHT22;31949;51.404;-0.038;2023-12-29T15:10:27;11.50;99.90
46231;DHT22;31949;51.404;-0.038;2023-12-29T15:12:54;11.40;99.90
46231;DHT22;31949;51.404;-0.038;2023-12-29T15:15:22;11.40;99.90
46231;DHT22;31949;51.404;-0.038;2023-12-29T15:17:49;11.30;99.90
46231;DHT22;31949;51.404;-0.038;2023-12-29T15:20:16;11.40;99.90
46231;DHT22;31949;51.404;-0.038;2023-12-29T15:22:44;11.30;99.90
46231;DHT22;31949;51.404;-0.038;2023-12-29T15:25:12;11.30;99.90
46231;DHT22;31949;51.404;-0.038;2023-12-29T15:27:39;11.20;99.90
46231;DHT22;31949;51.404;-0.038;2023-12-29T15:30:07;11.20;99.90
46231;DHT22;31949;51.404;-0.038;2023-12-29T15:32:34;11.20;99.90
46231;DHT22;31949;51.404;-0.038;2023-12-29T15:35:02;11.20;99.90
46231;DHT22;31949;51.404;-0.038;2023-12-29T15:37:29;11.20;99.90
46231;DHT22;31949;51.404;-0.038;2023-12-29T15:39:56;11.10;99.90
46231;DHT22;31949;51.404;-0.038;2023-12-29T15:42:23;11.10;99.90
46231;DHT22;31949;51.404;-0.038;2023-12-29T15:44:50;11.10;99.90
46231;DHT22;31949;51.404;-0.038;2023-12-29T15:47:18;11.10;99.90